createdAt,value
2023-03-26T00:00:15.558Z,3.95
2023-03-26T00:02:47.984Z,9.00
2023-03-26T00:05:18.042Z,5.45
2023-03-26T00:07:48.789Z,5.95
2023-03-26T00:10:18.892Z,5.07
2023-03-26T00:12:48.761Z,4.45
2023-03-26T00:15:18.679Z,4.90
2023-03-26T00:17:51.890Z,5.05
2023-03-26T00:20:21.975Z,6.30
2023-03-26T00:22:53.611Z,3.20
2023-03-26T00:25:23.729Z,3.10
2023-03-26T00:27:54.767Z,4.05
2023-03-26T00:30:24.610Z,6.20
2023-03-26T00:32:57.424Z,6.75
2023-03-26T00:35:29.374Z,9.40
2023-03-26T00:37:59.976Z,7.10
2023-03-26T00:40:29.872Z,5.63
2023-03-26T00:42:59.736Z,3.08
2023-03-26T00:45:29.590Z,3.65
2023-03-26T00:48:02.740Z,4.30
2023-03-26T00:50:32.913Z,11.48
2023-03-26T00:53:03.290Z,5.25
2023-03-26T00:55:33.142Z,6.38
2023-03-26T00:58:02.969Z,8.85
2023-03-26T01:00:35.017Z,5.90
2023-03-26T01:03:09.504Z,4.22
2023-03-26T01:08:38.410Z,3.03
2023-03-26T01:11:14.352Z,3.90
2023-03-26T01:13:47.525Z,6.82
2023-03-26T01:16:27.906Z,8.25
2023-03-26T01:19:01.016Z,6.00
2023-03-26T01:21:34.599Z,6.03
2023-03-26T01:24:08.821Z,5.73
2023-03-26T01:27:05.014Z,4.03
2023-03-26T01:29:42.320Z,4.38
2023-03-26T01:32:24.994Z,7.63
2023-03-26T01:35:12.563Z,4.55
2023-03-26T01:37:52.642Z,6.13
2023-03-26T01:40:31.902Z,6.78
2023-03-26T01:43:09.705Z,5.28
2023-03-26T01:45:42.541Z,7.18
2023-03-26T01:48:13.162Z,6.93
2023-03-26T01:50:43.292Z,6.43
2023-03-26T01:53:16.363Z,7.05
2023-03-26T01:56:02.216Z,5.47
2023-03-26T01:58:39.477Z,7.47
2023-03-26T02:01:19.740Z,7.38
2023-03-26T02:03:56.294Z,7.60
2023-03-26T02:06:34.493Z,5.80
2023-03-26T02:09:08.599Z,5.15
2023-03-26T02:11:43.253Z,9.57
2023-03-26T02:14:13.554Z,7.00
2023-03-26T02:16:47.058Z,9.98
2023-03-26T02:19:22.018Z,6.35
2023-03-26T02:21:52.881Z,7.28
2023-03-26T02:24:22.983Z,4.32
2023-03-26T02:26:56.091Z,7.82
2023-03-26T02:29:27.046Z,5.00
2023-03-26T02:31:56.960Z,2.95
2023-03-26T02:34:26.859Z,3.88
2023-03-26T02:36:57.316Z,6.25
2023-03-26T02:39:27.784Z,6.70
2023-03-26T02:42:00.289Z,5.82
2023-03-26T02:44:30.615Z,4.88
2023-03-26T02:47:00.516Z,3.67
2023-03-26T02:49:30.386Z,4.72
2023-03-26T02:52:00.382Z,4.18
2023-03-26T02:54:30.364Z,4.38
2023-03-26T02:57:02.954Z,5.30
2023-03-26T02:59:32.892Z,4.75
2023-03-26T03:02:02.878Z,6.07
2023-03-26T03:04:32.709Z,3.17
2023-03-26T03:07:02.618Z,3.88
2023-03-26T03:09:32.433Z,5.03
2023-03-26T03:12:04.873Z,4.00
2023-03-26T03:14:35.015Z,7.85
2023-03-26T03:17:04.890Z,6.90
2023-03-26T03:19:35.188Z,6.47
2023-03-26T03:22:05.081Z,5.53
2023-03-26T03:24:35.833Z,5.85
2023-03-26T03:27:08.418Z,6.80
2023-03-26T03:29:38.463Z,7.03
2023-03-26T03:32:08.377Z,4.32
2023-03-26T03:34:38.837Z,5.45
2023-03-26T03:37:08.788Z,6.50
2023-03-26T03:39:38.595Z,3.15
2023-03-26T03:42:11.101Z,5.78
2023-03-26T03:44:41.162Z,5.20
2023-03-26T03:47:13.824Z,3.28
2023-03-26T03:49:43.843Z,5.47
2023-03-26T03:52:13.861Z,7.22
2023-03-26T03:54:43.742Z,6.70
2023-03-26T03:57:18.949Z,5.95
2023-03-26T03:59:49.344Z,4.85
2023-03-26T04:02:26.645Z,5.47
2023-03-26T04:04:58.103Z,6.20
2023-03-26T04:07:28.505Z,5.75
2023-03-26T04:10:00.134Z,6.43
2023-03-26T04:12:33.792Z,5.45
2023-03-26T04:15:03.749Z,5.37
2023-03-26T04:17:34.060Z,4.78
2023-03-26T04:20:14.723Z,6.47
2023-03-26T04:22:45.006Z,3.90
2023-03-26T04:25:16.509Z,5.55
2023-03-26T04:27:49.468Z,4.65
2023-03-26T04:30:23.375Z,3.65
2023-03-26T04:32:54.263Z,6.10
2023-03-26T04:35:24.231Z,7.38
2023-03-26T04:37:54.604Z,5.57
2023-03-26T04:40:25.065Z,5.68
2023-03-26T04:43:00.052Z,8.05
2023-03-26T04:45:30.521Z,5.00
2023-03-26T04:48:00.964Z,8.88
2023-03-26T04:50:31.145Z,6.30
2023-03-26T04:53:01.124Z,5.47
2023-03-26T04:55:35.924Z,3.67
2023-03-26T04:58:09.552Z,10.23
2023-03-26T05:00:39.434Z,7.47
2023-03-26T05:03:11.846Z,10.20
2023-03-26T05:05:42.135Z,4.10
2023-03-26T05:08:12.221Z,6.07
2023-03-26T05:10:42.059Z,5.93
2023-03-26T05:13:14.541Z,4.63
2023-03-26T05:15:44.338Z,4.72
2023-03-26T05:18:14.247Z,8.13
2023-03-26T05:20:44.758Z,3.78
2023-03-26T05:23:14.725Z,6.80
2023-03-26T05:25:44.582Z,3.45
2023-03-26T05:28:19.389Z,5.13
2023-03-26T05:30:49.285Z,4.60
2023-03-26T05:33:19.472Z,8.70
2023-03-26T05:35:49.641Z,4.78
2023-03-26T05:38:19.592Z,6.40
2023-03-26T05:40:49.391Z,5.95
2023-03-26T05:43:21.928Z,6.20
2023-03-26T05:45:52.086Z,4.97
2023-03-26T05:48:22.499Z,8.00
2023-03-26T05:50:53.243Z,6.60
2023-03-26T05:53:25.025Z,9.30
2023-03-26T05:55:57.921Z,8.52
2023-03-26T05:58:31.891Z,5.10
2023-03-26T06:01:02.702Z,5.93
2023-03-26T06:03:32.724Z,6.03
2023-03-26T06:06:03.945Z,7.80
2023-03-26T06:08:34.012Z,6.78
2023-03-26T06:11:05.190Z,6.15
2023-03-26T06:13:37.758Z,7.93
2023-03-26T06:16:08.523Z,4.45
2023-03-26T06:18:38.811Z,3.58
2023-03-26T06:21:09.609Z,4.18
2023-03-26T06:23:39.461Z,6.55
2023-03-26T06:26:09.473Z,4.53
2023-03-26T06:28:41.893Z,8.02
2023-03-26T06:31:12.059Z,4.75
2023-03-26T06:33:42.033Z,3.35
2023-03-26T06:36:12.525Z,9.93
2023-03-26T06:38:42.441Z,5.93
2023-03-26T06:41:12.335Z,5.32
2023-03-26T06:43:44.947Z,7.07
2023-03-26T06:46:15.106Z,5.63
2023-03-26T06:48:45.166Z,4.13
2023-03-26T06:51:15.033Z,6.53
2023-03-26T06:53:44.978Z,8.98
2023-03-26T06:56:14.807Z,10.35
2023-03-26T06:58:47.230Z,3.90
2023-03-26T07:01:17.128Z,7.97
2023-03-26T07:03:47.070Z,4.60
2023-03-26T07:06:16.988Z,6.65
2023-03-26T07:08:47.037Z,6.55
2023-03-26T07:11:16.964Z,9.82
2023-03-26T07:13:49.376Z,6.28
2023-03-26T07:16:19.248Z,4.43
2023-03-26T07:18:49.159Z,10.30
2023-03-26T07:21:20.134Z,6.95
2023-03-26T07:23:51.004Z,10.23
2023-03-26T07:26:31.433Z,5.43
2023-03-26T07:29:13.937Z,6.53
2023-03-26T07:31:48.670Z,7.47
2023-03-26T07:34:37.258Z,4.85
2023-03-26T07:37:14.805Z,5.72
2023-03-26T07:39:54.224Z,8.65
2023-03-26T07:42:36.685Z,4.97
2023-03-26T07:45:19.964Z,7.88
2023-03-26T07:47:53.671Z,6.03
2023-03-26T07:50:26.080Z,9.20
2023-03-26T07:52:56.503Z,5.72
2023-03-26T07:55:27.266Z,7.82
2023-03-26T07:58:10.349Z,6.72
2023-03-26T08:00:47.492Z,7.25
2023-03-26T08:03:43.798Z,8.75
2023-03-26T08:06:19.658Z,3.88
2023-03-26T08:08:56.440Z,7.35
2023-03-26T08:11:33.736Z,7.88
2023-03-26T08:14:16.657Z,9.55
2023-03-26T08:16:53.841Z,6.63
2023-03-26T08:19:40.912Z,7.45
2023-03-26T08:22:16.931Z,8.40
2023-03-26T08:25:02.094Z,8.63
2023-03-26T08:27:40.514Z,12.20
2023-03-26T08:30:16.068Z,7.80
2023-03-26T08:32:55.621Z,5.68
2023-03-26T08:35:25.730Z,6.35
2023-03-26T08:37:55.915Z,5.55
2023-03-26T08:40:47.292Z,9.40
2023-03-26T08:43:45.287Z,5.78
2023-03-26T08:46:35.868Z,9.05
2023-03-26T08:49:46.499Z,6.40
2023-03-26T08:52:45.554Z,7.60
2023-03-26T08:55:46.242Z,5.47
2023-03-26T08:58:50.113Z,9.57
2023-03-26T09:01:48.289Z,5.70
2023-03-26T09:04:33.868Z,8.00
2023-03-26T09:07:43.704Z,7.25
2023-03-26T09:10:48.957Z,5.78
2023-03-26T09:13:44.273Z,6.35
2023-03-26T09:16:39.193Z,7.68
2023-03-26T09:22:15.447Z,6.50
2023-03-26T09:25:20.009Z,9.93
2023-03-26T09:28:20.729Z,8.85
2023-03-26T09:31:15.683Z,9.68
2023-03-26T09:34:00.437Z,4.93
2023-03-26T09:36:43.705Z,6.78
2023-03-26T09:39:21.045Z,5.25
2023-03-26T09:42:04.045Z,6.13
2023-03-26T09:45:11.718Z,5.93
2023-03-26T09:48:21.034Z,4.93
2023-03-26T09:51:08.793Z,6.88
2023-03-26T09:54:01.975Z,4.95
2023-03-26T09:56:50.171Z,9.70
2023-03-26T09:59:41.514Z,3.85
2023-03-26T10:02:45.458Z,5.78
2023-03-26T10:05:42.573Z,4.00
2023-03-26T10:08:35.829Z,3.60
2023-03-26T10:11:12.910Z,4.72
2023-03-26T10:13:55.443Z,5.47
2023-03-26T10:16:34.609Z,2.90
2023-03-26T10:19:22.499Z,3.47
2023-03-26T10:22:03.917Z,2.17
2023-03-26T10:24:50.512Z,5.40
2023-03-26T10:27:35.112Z,4.97
2023-03-26T10:30:35.220Z,4.25
2023-03-26T10:33:25.234Z,2.03
2023-03-26T10:36:10.378Z,2.88
2023-03-26T10:38:56.533Z,2.10
2023-03-26T10:41:36.690Z,3.33
2023-03-26T10:44:28.208Z,4.47
2023-03-26T10:47:24.356Z,2.25
2023-03-26T10:50:07.693Z,3.97
2023-03-26T10:52:44.389Z,2.53
2023-03-26T10:55:18.153Z,4.20
2023-03-26T10:57:52.716Z,4.50
2023-03-26T11:00:26.314Z,2.75
2023-03-26T11:03:23.101Z,2.43
2023-03-26T11:06:01.570Z,3.67
2023-03-26T11:08:42.209Z,5.40
2023-03-26T11:11:22.515Z,6.68
2023-03-26T11:14:02.195Z,4.82
2023-03-26T11:16:42.736Z,2.88
2023-03-26T11:19:23.289Z,3.15
2023-03-26T11:22:00.190Z,2.47
2023-03-26T11:24:57.703Z,0.88
2023-03-26T11:27:35.637Z,2.40
2023-03-26T11:30:18.463Z,2.42
2023-03-26T11:32:51.866Z,4.32
2023-03-26T11:35:39.370Z,1.55
2023-03-26T11:38:21.202Z,2.83
2023-03-26T11:40:58.046Z,2.45
2023-03-26T11:43:36.073Z,2.88
2023-03-26T11:46:10.278Z,2.38
2023-03-26T11:48:44.427Z,3.67
2023-03-26T11:51:19.194Z,1.83
2023-03-26T11:53:49.428Z,3.00
2023-03-26T11:56:30.290Z,2.47
2023-03-26T11:59:05.310Z,3.13
2023-03-26T12:01:50.480Z,4.45
2023-03-26T12:04:22.206Z,2.60
2023-03-26T12:06:59.804Z,4.55
2023-03-26T12:09:29.703Z,3.28
2023-03-26T12:12:05.090Z,2.60
2023-03-26T12:14:37.633Z,2.08
2023-03-26T12:17:10.017Z,1.50
2023-03-26T12:19:44.285Z,1.70
2023-03-26T12:22:33.290Z,2.95
2023-03-26T12:25:17.736Z,1.45
2023-03-26T12:27:52.953Z,1.92
2023-03-26T12:30:25.994Z,3.65
2023-03-26T12:33:00.992Z,2.17
2023-03-26T12:35:33.662Z,2.55
2023-03-26T12:38:24.473Z,3.05
2023-03-26T12:44:44.082Z,2.92
2023-03-26T12:44:53.797Z,2.00
2023-03-26T12:48:00.103Z,4.57
2023-03-26T12:50:15.389Z,2.03
2023-03-26T12:53:05.638Z,2.85
2023-03-26T12:55:44.976Z,3.28
2023-03-26T12:58:38.367Z,2.80
2023-03-26T13:01:20.784Z,2.60
2023-03-26T13:04:15.479Z,4.70
2023-03-26T13:07:01.690Z,1.75
2023-03-26T13:09:56.740Z,2.50
2023-03-26T13:12:38.287Z,3.67
2023-03-26T13:15:28.993Z,4.32
2023-03-26T13:18:19.791Z,4.57
2023-03-26T13:20:57.574Z,4.07
2023-03-26T13:23:39.663Z,3.67
2023-03-26T13:26:22.564Z,4.50
2023-03-26T13:29:00.228Z,2.58
2023-03-26T13:31:36.887Z,5.03
2023-03-26T13:34:18.128Z,6.25
2023-03-26T13:37:01.125Z,3.30
2023-03-26T13:39:37.633Z,3.83
2023-03-26T13:42:39.416Z,3.20
2023-03-26T13:45:17.657Z,3.10
2023-03-26T13:47:52.298Z,3.63
2023-03-26T13:50:28.416Z,4.85
2023-03-26T13:53:02.895Z,4.78
2023-03-26T13:58:13.648Z,4.20
2023-03-26T14:00:55.785Z,2.35
2023-03-26T14:03:32.193Z,2.58
2023-03-26T14:06:10.966Z,1.73
2023-03-26T14:08:44.883Z,3.80
2023-03-26T14:11:18.863Z,2.78
2023-03-26T14:13:54.493Z,1.90
2023-03-26T14:16:29.220Z,2.95
2023-03-26T14:19:04.988Z,5.38
2023-03-26T14:21:53.569Z,1.20
2023-03-26T14:24:45.089Z,3.22
2023-03-26T14:27:34.250Z,8.35
2023-03-26T14:30:54.535Z,5.05
2023-03-26T14:33:55.623Z,6.28
2023-03-26T14:36:51.126Z,5.07
2023-03-26T14:39:43.300Z,8.73
2023-03-26T14:42:21.843Z,4.85
2023-03-26T14:45:07.323Z,3.25
2023-03-26T14:47:44.505Z,1.30
2023-03-26T14:50:47.271Z,2.42
2023-03-26T14:53:28.948Z,0.35
2023-03-26T14:56:31.148Z,0.30
2023-03-26T14:59:36.654Z,0.90
2023-03-26T15:02:51.017Z,0.75
2023-03-26T15:05:54.421Z,1.63
2023-03-26T15:08:58.462Z,2.95
2023-03-26T15:11:37.044Z,1.65
2023-03-26T15:14:32.872Z,1.98
2023-03-26T15:17:34.599Z,1.63
2023-03-26T15:20:37.045Z,1.20
2023-03-26T15:23:38.625Z,1.80
2023-03-26T15:26:44.240Z,2.78
2023-03-26T15:32:26.875Z,0.85
2023-03-26T15:35:24.165Z,1.40
2023-03-26T15:38:28.424Z,1.27
2023-03-26T15:41:20.276Z,0.93
2023-03-26T15:44:30.843Z,2.25
2023-03-26T15:47:22.907Z,3.10
2023-03-26T15:49:59.269Z,1.27
2023-03-26T15:52:36.527Z,1.80
2023-03-26T15:55:21.086Z,1.40
2023-03-26T15:58:01.597Z,3.88
2023-03-26T16:00:37.437Z,3.22
2023-03-26T16:03:23.270Z,2.10
2023-03-26T16:06:15.994Z,1.83
2023-03-26T16:08:55.386Z,2.00
2023-03-26T16:12:01.302Z,2.92
2023-03-26T16:14:45.731Z,1.77
2023-03-26T16:17:21.443Z,2.47
2023-03-26T16:20:04.126Z,2.20
2023-03-26T16:22:56.517Z,4.10
2023-03-26T16:25:32.295Z,3.25
2023-03-26T16:28:22.553Z,1.58
2023-03-26T16:31:23.637Z,0.80
2023-03-26T16:34:22.720Z,1.60
2023-03-26T16:36:54.485Z,1.40
2023-03-26T16:39:40.788Z,1.05
2023-03-26T16:42:35.601Z,0.65
2023-03-26T16:45:17.818Z,0.40
2023-03-26T16:47:56.861Z,1.10
2023-03-26T16:50:39.408Z,2.08
2023-03-26T16:53:25.833Z,2.20
2023-03-26T16:55:59.800Z,2.08
2023-03-26T16:58:36.649Z,0.85
2023-03-26T17:01:21.380Z,1.15
2023-03-26T17:03:59.361Z,0.90
2023-03-26T17:07:05.680Z,1.58
2023-03-26T17:09:51.748Z,0.75
2023-03-26T17:12:30.464Z,0.65
2023-03-26T17:15:20.490Z,0.85
2023-03-26T17:17:59.976Z,0.50
2023-03-26T17:20:37.071Z,0.40
2023-03-26T17:23:25.346Z,0.55
2023-03-26T17:26:06.413Z,2.40
2023-03-26T17:28:49.417Z,0.40
2023-03-26T17:31:31.412Z,0.70
2023-03-26T17:34:31.156Z,1.20
2023-03-26T17:37:01.518Z,2.50
2023-03-26T17:40:12.587Z,1.30
2023-03-26T17:43:04.108Z,1.60
2023-03-26T17:45:37.909Z,1.63
2023-03-26T17:48:15.665Z,1.05
2023-03-26T17:50:53.729Z,2.58
2023-03-26T17:53:27.638Z,2.25
2023-03-26T17:56:03.344Z,9.05
2023-03-26T17:58:39.053Z,2.40
2023-03-26T18:01:22.552Z,3.10
2023-03-26T18:03:54.740Z,0.70
2023-03-26T18:06:43.307Z,0.80
2023-03-26T18:09:24.241Z,2.13
2023-03-26T18:12:27.478Z,1.33
2023-03-26T18:15:34.074Z,2.05
2023-03-26T18:18:13.800Z,1.75
2023-03-26T18:20:47.091Z,2.25
2023-03-26T18:23:26.443Z,3.90
2023-03-26T18:26:00.132Z,3.10
2023-03-26T18:28:37.736Z,1.33
2023-03-26T18:31:17.448Z,2.47
2023-03-26T18:33:51.992Z,3.47
2023-03-26T18:38:52.706Z,1.00
2023-03-26T18:41:30.561Z,1.30
2023-03-26T18:44:04.734Z,1.10
2023-03-26T18:46:35.841Z,1.75
2023-03-26T18:49:08.464Z,1.23
2023-03-26T18:51:46.381Z,2.92
2023-03-26T18:54:22.829Z,2.42
2023-03-26T18:56:53.101Z,2.33
2023-03-26T18:59:29.018Z,1.35
2023-03-26T19:02:00.335Z,1.27
2023-03-26T19:04:35.065Z,2.25
2023-03-26T19:07:06.117Z,2.50
2023-03-26T19:09:36.185Z,1.92
2023-03-26T19:12:09.985Z,1.65
2023-03-26T19:14:56.217Z,4.50
2023-03-26T19:17:29.337Z,2.35
2023-03-26T19:20:01.920Z,5.15
2023-03-26T19:22:33.061Z,1.42
2023-03-26T19:25:07.734Z,1.98
2023-03-26T19:27:38.591Z,1.60
2023-03-26T19:30:10.739Z,2.70
2023-03-26T19:32:40.613Z,1.33
2023-03-26T19:35:25.417Z,3.42
2023-03-26T19:37:56.880Z,1.35
2023-03-26T19:40:30.107Z,1.15
2023-03-26T19:43:01.929Z,1.30
2023-03-26T19:45:36.898Z,1.15
2023-03-26T19:48:45.614Z,1.75
2023-03-26T19:51:23.524Z,2.60
2023-03-26T19:53:56.617Z,0.93
2023-03-26T19:56:27.622Z,0.82
2023-03-26T19:58:59.281Z,0.65
2023-03-26T20:04:06.498Z,0.80
2023-03-26T20:06:43.940Z,0.60
2023-03-26T20:09:16.397Z,2.63
2023-03-26T20:11:47.140Z,1.92
2023-03-26T20:14:18.259Z,0.90
2023-03-26T20:16:48.165Z,0.98
2023-03-26T20:19:18.398Z,2.00
2023-03-26T20:21:52.863Z,2.42
2023-03-26T20:24:24.866Z,1.40
2023-03-26T20:26:54.779Z,1.02
2023-03-26T20:29:24.682Z,2.47
2023-03-26T20:31:55.298Z,1.08
2023-03-26T20:34:28.066Z,1.63
2023-03-26T20:37:01.168Z,0.93
2023-03-26T20:39:31.607Z,0.52
2023-03-26T20:42:01.772Z,2.45
2023-03-26T20:44:31.737Z,1.55
2023-03-26T20:47:01.577Z,0.90
2023-03-26T20:49:32.477Z,2.20
2023-03-26T20:52:05.132Z,1.13
2023-03-26T20:54:35.967Z,0.68
2023-03-26T20:57:06.137Z,1.40
2023-03-26T20:59:36.168Z,0.60
2023-03-26T21:02:06.434Z,0.70
2023-03-26T21:04:36.385Z,1.40
2023-03-26T21:07:17.684Z,1.95
2023-03-26T21:09:49.349Z,1.05
2023-03-26T21:12:28.213Z,1.58
2023-03-26T21:14:58.964Z,1.15
2023-03-26T21:17:30.165Z,1.05
2023-03-26T21:20:09.069Z,1.13
2023-03-26T21:22:46.433Z,1.42
2023-03-26T21:25:24.639Z,0.45
2023-03-26T21:28:03.706Z,1.27
2023-03-26T21:30:34.547Z,2.00
2023-03-26T21:33:05.473Z,2.97
2023-03-26T21:35:37.010Z,1.35
2023-03-26T21:38:10.181Z,2.78
2023-03-26T21:40:46.861Z,1.80
2023-03-26T21:43:17.649Z,0.75
2023-03-26T21:45:48.785Z,3.20
2023-03-26T21:48:19.717Z,0.63
2023-03-26T21:50:50.298Z,1.52
2023-03-26T21:53:24.267Z,3.10
2023-03-26T21:56:07.111Z,2.70
2023-03-26T21:58:46.475Z,2.58
2023-03-26T22:01:25.001Z,3.63
2023-03-26T22:04:04.629Z,1.45
2023-03-26T22:06:43.005Z,2.03
2023-03-26T22:09:18.489Z,1.48
2023-03-26T22:11:50.700Z,2.10
2023-03-26T22:14:20.809Z,1.35
2023-03-26T22:16:50.807Z,5.03
2023-03-26T22:19:20.621Z,2.50
2023-03-26T22:21:50.865Z,1.00
2023-03-26T22:24:23.353Z,2.28
2023-03-26T22:26:53.212Z,1.88
2023-03-26T22:29:23.514Z,1.65
2023-03-26T22:31:53.418Z,2.15
2023-03-26T22:34:23.970Z,2.17
2023-03-26T22:36:55.137Z,1.67
2023-03-26T22:39:27.641Z,2.50
2023-03-26T22:41:57.689Z,1.15
2023-03-26T22:44:27.923Z,1.70
2023-03-26T22:46:57.787Z,2.38
2023-03-26T22:49:30.396Z,1.65
2023-03-26T22:52:00.288Z,4.97
2023-03-26T22:54:33.261Z,3.70
2023-03-26T22:57:03.669Z,3.85
2023-03-26T22:59:33.800Z,2.15
2023-03-26T23:02:04.006Z,4.43
2023-03-26T23:04:33.966Z,1.55
2023-03-26T23:07:03.828Z,2.92
2023-03-26T23:09:36.954Z,1.77
2023-03-26T23:12:07.764Z,2.58
2023-03-26T23:14:38.107Z,1.98
2023-03-26T23:17:14.639Z,3.33
2023-03-26T23:19:45.153Z,2.28
2023-03-26T23:22:15.113Z,3.28
2023-03-26T23:24:47.513Z,2.13
2023-03-26T23:27:17.372Z,4.03
2023-03-26T23:29:53.468Z,2.80
2023-03-26T23:32:25.311Z,3.08
2023-03-26T23:34:55.926Z,3.15
2023-03-26T23:37:26.306Z,2.85
2023-03-26T23:39:58.782Z,3.67
2023-03-26T23:42:29.914Z,3.70
2023-03-26T23:44:59.938Z,2.38
2023-03-26T23:47:35.045Z,2.47
2023-03-26T23:50:05.161Z,3.05
2023-03-26T23:52:35.004Z,4.18
2023-03-26T23:55:08.586Z,2.55
2023-03-26T23:57:38.429Z,3.97
